sensor_id;sensor_type;location;lat;lon;timestamp;pressure;altitude;pressure_sealevel;temperature;humidity
68226;BME280;55045;49.410;11.030;2023-08-20T00:01:50;98375.53;;;22.93;100.00
68226;BME280;55045;49.410;11.030;2023-08-20T00:04:58;98376.06;;;22.96;100.00
68226;BME280;55045;49.410;11.030;2023-08-20T00:08:03;98372.06;;;22.92;100.00
68226;BME280;55045;49.410;11.030;2023-08-20T00:11:07;98372.22;;;22.91;100.00
68226;BME280;55045;49.410;11.030;2023-08-20T00:14:16;98375.28;;;22.86;100.00
68226;BME280;55045;49.410;11.030;2023-08-20T00:17:20;98379.75;;;22.86;100.00
68226;BME280;55045;49.410;11.030;2023-08-20T00:20:24;98376.13;;;22.87;100.00
68226;BME280;55045;49.410;11.030;2023-08-20T00:23:29;98375.28;;;22.86;100.00
68226;BME280;55045;49.410;11.030;2023-08-20T00:26:33;98372.22;;;22.91;100.00
68226;BME280;55045;49.410;11.030;2023-08-20T00:29:36;98368.00;;;22.98;100.00
68226;BME280;55045;49.410;11.030;2023-08-20T00:32:39;98363.25;;;23.02;100.00
68226;BME280;55045;49.410;11.030;2023-08-20T00:35:43;98363.41;;;23.00;100.00
68226;BME280;55045;49.410;11.030;2023-08-20T00:38:50;98365.13;;;22.91;100.00
68226;BME280;55045;49.410;11.030;2023-08-20T00:41:53;98360.50;;;22.93;100.00
68226;BME280;55045;49.410;11.030;2023-08-20T00:44:56;98360.78;;;23.00;100.00
68226;BME280;55045;49.410;11.030;2023-08-20T00:48:00;98362.84;;;22.96;100.00
68226;BME280;55045;49.410;11.030;2023-08-20T00:51:04;98371.53;;;22.89;100.00
68226;BME280;55045;49.410;11.030;2023-08-20T00:54:08;98367.09;;;22.89;100.00
68226;BME280;55045;49.410;11.030;2023-08-20T00:57:13;98364.00;;;22.94;100.00
68226;BME280;55045;49.410;11.030;2023-08-20T01:00:17;98370.25;;;22.83;100.00
68226;BME280;55045;49.410;11.030;2023-08-20T01:03:24;98368.19;;;22.77;100.00
68226;BME280;55045;49.410;11.030;2023-08-20T01:06:35;98365.69;;;22.76;100.00
68226;BME280;55045;49.410;11.030;2023-08-20T01:09:50;98365.31;;;22.70;100.00
68226;BME280;55045;49.410;11.030;2023-08-20T01:12:53;98365.03;;;22.64;100.00
68226;BME280;55045;49.410;11.030;2023-08-20T01:15:57;98369.38;;;22.55;100.00
68226;BME280;55045;49.410;11.030;2023-08-20T01:19:01;98380.94;;;22.45;100.00
68226;BME280;55045;49.410;11.030;2023-08-20T01:22:31;98384.03;;;22.40;100.00
68226;BME280;55045;49.410;11.030;2023-08-20T01:25:49;98399.59;;;22.33;100.00
68226;BME280;55045;49.410;11.030;2023-08-20T01:28:58;98393.78;;;22.20;100.00
68226;BME280;55045;49.410;11.030;2023-08-20T01:32:02;98398.78;;;22.13;100.00
68226;BME280;55045;49.410;11.030;2023-08-20T01:35:07;98407.13;;;22.09;100.00
68226;BME280;55045;49.410;11.030;2023-08-20T01:38:12;98406.53;;;22.05;100.00
68226;BME280;55045;49.410;11.030;2023-08-20T01:41:15;98402.06;;;22.06;100.00
68226;BME280;55045;49.410;11.030;2023-08-20T01:44:20;98415.28;;;22.06;100.00
68226;BME280;55045;49.410;11.030;2023-08-20T01:47:23;98416.69;;;22.00;100.00
68226;BME280;55045;49.410;11.030;2023-08-20T01:50:27;98416.25;;;21.95;100.00
68226;BME280;55045;49.410;11.030;2023-08-20T01:53:30;98417.91;;;21.96;100.00
68226;BME280;55045;49.410;11.030;2023-08-20T01:56:35;98416.00;;;21.89;100.00
68226;BME280;55045;49.410;11.030;2023-08-20T01:59:40;98415.41;;;21.85;100.00
68226;BME280;55045;49.410;11.030;2023-08-20T02:02:44;98414.88;;;21.91;100.00
68226;BME280;55045;49.410;11.030;2023-08-20T02:05:47;98411.94;;;21.94;100.00
68226;BME280;55045;49.410;11.030;2023-08-20T02:08:51;98408.75;;;21.81;100.00
68226;BME280;55045;49.410;11.030;2023-08-20T02:11:58;98408.47;;;21.84;100.00
68226;BME280;55045;49.410;11.030;2023-08-20T02:15:02;98402.91;;;21.77;100.00
68226;BME280;55045;49.410;11.030;2023-08-20T02:18:07;98403.16;;;21.74;100.00
68226;BME280;55045;49.410;11.030;2023-08-20T02:21:10;98408.72;;;21.71;100.00
68226;BME280;55045;49.410;11.030;2023-08-20T02:24:13;98410.09;;;21.66;100.00
68226;BME280;55045;49.410;11.030;2023-08-20T02:27:16;98422.19;;;21.59;100.00
68226;BME280;55045;49.410;11.030;2023-08-20T02:30:21;98430.22;;;21.47;100.00
68226;BME280;55045;49.410;11.030;2023-08-20T02:33:24;98424.22;;;21.45;100.00
68226;BME280;55045;49.410;11.030;2023-08-20T02:36:27;98425.94;;;21.56;100.00
68226;BME280;55045;49.410;11.030;2023-08-20T02:39:31;98426.06;;;21.54;100.00
68226;BME280;55045;49.410;11.030;2023-08-20T02:42:36;98427.84;;;21.44;100.00
68226;BME280;55045;49.410;11.030;2023-08-20T02:45:41;98424.38;;;21.44;100.00
68226;BME280;55045;49.410;11.030;2023-08-20T02:48:45;98424.66;;;21.50;100.00
68226;BME280;55045;49.410;11.030;2023-08-20T02:51:48;98424.66;;;21.50;100.00
68226;BME280;55045;49.410;11.030;2023-08-20T02:54:51;98413.56;;;21.47;100.00
68226;BME280;55045;49.410;11.030;2023-08-20T02:57:55;98414.66;;;21.44;100.00
68226;BME280;55045;49.410;11.030;2023-08-20T03:00:59;98405.75;;;21.45;100.00
68226;BME280;55045;49.410;11.030;2023-08-20T03:04:04;98408.69;;;21.42;100.00
68226;BME280;55045;49.410;11.030;2023-08-20T03:07:07;98413.53;;;21.37;100.00
68226;BME280;55045;49.410;11.030;2023-08-20T03:10:10;98413.78;;;21.34;100.00
68226;BME280;55045;49.410;11.030;2023-08-20T03:13:13;98401.31;;;21.36;100.00
68226;BME280;55045;49.410;11.030;2023-08-20T03:16:18;98398.94;;;21.33;100.00
68226;BME280;55045;49.410;11.030;2023-08-20T03:19:22;98405.44;;;21.29;100.00
68226;BME280;55045;49.410;11.030;2023-08-20T03:22:26;98406.63;;;21.25;100.00
68226;BME280;55045;49.410;11.030;2023-08-20T03:25:30;98415.09;;;21.19;100.00
68226;BME280;55045;49.410;11.030;2023-08-20T03:28:33;98410.63;;;21.10;100.00
68226;BME280;55045;49.410;11.030;2023-08-20T03:34:35;98426.81;;;20.95;100.00
68226;BME280;55045;49.410;11.030;2023-08-20T03:37:38;98420.94;;;20.92;100.00
68226;BME280;55045;49.410;11.030;2023-08-20T03:40:42;98429.81;;;20.91;100.00
68226;BME280;55045;49.410;11.030;2023-08-20T03:43:47;98419.69;;;20.86;100.00
68226;BME280;55045;49.410;11.030;2023-08-20T03:46:50;98417.19;;;20.85;100.00
68226;BME280;55045;49.410;11.030;2023-08-20T03:49:55;98416.03;;;20.78;100.00
68226;BME280;55045;49.410;11.030;2023-08-20T03:52:58;98428.66;;;20.74;100.00
68226;BME280;55045;49.410;11.030;2023-08-20T03:56:01;98434.16;;;20.71;100.00
68226;BME280;55045;49.410;11.030;2023-08-20T03:59:07;98435.81;;;20.72;100.00
68226;BME280;55045;49.410;11.030;2023-08-20T04:02:10;98437.75;;;20.70;100.00
68226;BME280;55045;49.410;11.030;2023-08-20T04:05:15;98439.44;;;20.71;100.00
68226;BME280;55045;49.410;11.030;2023-08-20T04:08:19;98437.75;;;20.70;100.00
68226;BME280;55045;49.410;11.030;2023-08-20T04:11:22;98439.97;;;20.65;100.00
68226;BME280;55045;49.410;11.030;2023-08-20T04:14:25;98439.97;;;20.65;100.00
68226;BME280;55045;49.410;11.030;2023-08-20T04:17:28;98438.16;;;20.65;100.00
68226;BME280;55045;49.410;11.030;2023-08-20T04:20:33;98443.66;;;20.62;100.00
68226;BME280;55045;49.410;11.030;2023-08-20T04:23:37;98450.75;;;20.62;100.00
68226;BME280;55045;49.410;11.030;2023-08-20T04:26:47;98449.34;;;20.58;100.00
68226;BME280;55045;49.410;11.030;2023-08-20T04:29:57;98448.94;;;20.62;100.00
68226;BME280;55045;49.410;11.030;2023-08-20T04:33:02;98447.41;;;20.60;100.00
68226;BME280;55045;49.410;11.030;2023-08-20T04:36:07;98452.41;;;20.63;100.00
68226;BME280;55045;49.410;11.030;2023-08-20T04:39:10;98453.13;;;20.65;100.00
68226;BME280;55045;49.410;11.030;2023-08-20T04:42:18;98446.31;;;20.62;100.00
68226;BME280;55045;49.410;11.030;2023-08-20T04:45:22;98453.13;;;20.65;100.00
68226;BME280;55045;49.410;11.030;2023-08-20T04:48:25;98455.19;;;20.61;100.00
68226;BME280;55045;49.410;11.030;2023-08-20T04:51:30;98456.59;;;20.65;100.00
68226;BME280;55045;49.410;11.030;2023-08-20T04:54:34;98457.94;;;20.81;100.00
68226;BME280;55045;49.410;11.030;2023-08-20T04:57:37;98453.31;;;20.73;100.00
68226;BME280;55045;49.410;11.030;2023-08-20T05:00:42;98454.72;;;20.77;100.00
68226;BME280;55045;49.410;11.030;2023-08-20T05:03:48;98459.66;;;20.91;100.00
68226;BME280;55045;49.410;11.030;2023-08-20T05:06:53;98462.75;;;20.96;100.00
68226;BME280;55045;49.410;11.030;2023-08-20T05:09:56;98461.78;;;20.97;100.00
68226;BME280;55045;49.410;11.030;2023-08-20T05:12:59;98459.34;;;21.06;100.00
68226;BME280;55045;49.410;11.030;2023-08-20T05:16:05;98457.91;;;21.02;100.00
68226;BME280;55045;49.410;11.030;2023-08-20T05:19:09;98462.72;;;21.17;100.00
68226;BME280;55045;49.410;11.030;2023-08-20T05:22:13;98470.09;;;21.23;100.00
68226;BME280;55045;49.410;11.030;2023-08-20T05:25:17;98480.84;;;21.32;100.00
68226;BME280;55045;49.410;11.030;2023-08-20T05:28:21;98475.19;;;21.36;100.00
68226;BME280;55045;49.410;11.030;2023-08-20T05:31:24;98480.88;;;21.41;100.00
68226;BME280;55045;49.410;11.030;2023-08-20T05:34:28;98476.66;;;21.60;100.00
68226;BME280;55045;49.410;11.030;2023-08-20T05:37:32;98478.03;;;21.64;100.00
68226;BME280;55045;49.410;11.030;2023-08-20T05:40:36;98483.06;;;21.67;100.00
68226;BME280;55045;49.410;11.030;2023-08-20T05:43:39;98479.88;;;21.73;100.00
68226;BME280;55045;49.410;11.030;2023-08-20T05:46:43;98486.69;;;21.85;100.00
68226;BME280;55045;49.410;11.030;2023-08-20T05:49:49;98490.19;;;21.95;100.00
68226;BME280;55045;49.410;11.030;2023-08-20T05:52:54;98477.28;;;22.02;100.00
68226;BME280;55045;49.410;11.030;2023-08-20T05:55:57;98471.19;;;22.01;100.00
68226;BME280;55045;49.410;11.030;2023-08-20T05:59:01;98479.28;;;22.19;100.00
68226;BME280;55045;49.410;11.030;2023-08-20T06:02:05;98475.25;;;22.25;100.00
68226;BME280;55045;49.410;11.030;2023-08-20T06:05:09;98472.75;;;22.33;100.00
68226;BME280;55045;49.410;11.030;2023-08-20T06:08:14;98477.06;;;22.53;100.00
68226;BME280;55045;49.410;11.030;2023-08-20T06:11:17;98471.91;;;22.61;100.00
68226;BME280;55045;49.410;11.030;2023-08-20T06:14:20;98476.75;;;22.66;100.00
68226;BME280;55045;49.410;11.030;2023-08-20T06:17:24;98463.13;;;22.90;100.00
68226;BME280;55045;49.410;11.030;2023-08-20T06:20:27;98454.47;;;22.88;100.00
68226;BME280;55045;49.410;11.030;2023-08-20T06:23:32;98444.97;;;23.05;100.00
68226;BME280;55045;49.410;11.030;2023-08-20T06:26:47;98443.50;;;23.30;100.00
68226;BME280;55045;49.410;11.030;2023-08-20T06:29:51;98436.81;;;23.53;100.00
68226;BME280;55045;49.410;11.030;2023-08-20T06:32:54;98440.16;;;23.55;100.00
68226;BME280;55045;49.410;11.030;2023-08-20T06:35:57;98444.84;;;23.71;100.00
68226;BME280;55045;49.410;11.030;2023-08-20T06:39:03;98435.84;;;23.81;100.00
68226;BME280;55045;49.410;11.030;2023-08-20T06:42:06;98432.28;;;24.08;100.00
68226;BME280;55045;49.410;11.030;2023-08-20T06:45:11;98443.19;;;24.05;100.00
68226;BME280;55045;49.410;11.030;2023-08-20T06:48:14;98436.09;;;24.24;100.00
68226;BME280;55045;49.410;11.030;2023-08-20T06:51:20;98447.81;;;24.57;100.00
68226;BME280;55045;49.410;11.030;2023-08-20T06:54:25;98444.06;;;24.67;100.00
68226;BME280;55045;49.410;11.030;2023-08-20T06:57:28;98453.00;;;24.92;100.00
68226;BME280;55045;49.410;11.030;2023-08-20T07:00:31;98452.31;;;25.08;100.00
68226;BME280;55045;49.410;11.030;2023-08-20T07:03:34;98449.50;;;25.10;100.00
68226;BME280;55045;49.410;11.030;2023-08-20T07:06:38;98456.56;;;25.27;100.00
68226;BME280;55045;49.410;11.030;2023-08-20T07:09:43;98457.66;;;25.50;100.00
68226;BME280;55045;49.410;11.030;2023-08-20T07:12:46;98464.19;;;25.64;100.00
68226;BME280;55045;49.410;11.030;2023-08-20T07:15:49;98455.75;;;25.69;100.00
68226;BME280;55045;49.410;11.030;2023-08-20T07:18:53;98454.66;;;25.88;100.00
68226;BME280;55045;49.410;11.030;2023-08-20T07:21:56;98457.66;;;25.93;100.00
68226;BME280;55045;49.410;11.030;2023-08-20T07:25:00;98459.00;;;25.97;100.00
68226;BME280;55045;49.410;11.030;2023-08-20T07:28:04;98460.53;;;26.32;100.00
68226;BME280;55045;49.410;11.030;2023-08-20T07:31:07;98469.22;;;26.42;100.00
68226;BME280;55045;49.410;11.030;2023-08-20T07:34:10;98478.88;;;26.67;100.00
68226;BME280;55045;49.410;11.030;2023-08-20T07:37:14;98470.84;;;26.92;100.00
68226;BME280;55045;49.410;11.030;2023-08-20T07:40:19;98478.50;;;26.87;100.00
68226;BME280;55045;49.410;11.030;2023-08-20T07:43:23;98470.22;;;26.82;100.00
68226;BME280;55045;49.410;11.030;2023-08-20T07:46:27;98475.47;;;27.22;100.00
68226;BME280;55045;49.410;11.030;2023-08-20T07:49:30;98472.44;;;27.34;100.00
68226;BME280;55045;49.410;11.030;2023-08-20T07:52:34;98471.22;;;27.52;100.00
68226;BME280;55045;49.410;11.030;2023-08-20T07:55:38;98471.88;;;27.54;100.00
68226;BME280;55045;49.410;11.030;2023-08-20T07:58:42;98471.38;;;27.51;100.00
68226;BME280;55045;49.410;11.030;2023-08-20T08:01:45;98475.34;;;27.55;100.00
68226;BME280;55045;49.410;11.030;2023-08-20T08:04:49;98469.38;;;27.53;100.00
68226;BME280;55045;49.410;11.030;2023-08-20T08:07:52;98469.97;;;27.79;100.00
68226;BME280;55045;49.410;11.030;2023-08-20T08:10:57;98463.00;;;27.70;100.00
68226;BME280;55045;49.410;11.030;2023-08-20T08:14:00;98473.66;;;28.01;100.00
68226;BME280;55045;49.410;11.030;2023-08-20T08:17:03;98472.38;;;28.20;100.00
68226;BME280;55045;49.410;11.030;2023-08-20T08:20:07;98468.44;;;28.08;100.00
68226;BME280;55045;49.410;11.030;2023-08-20T08:23:10;98472.81;;;28.55;100.00
68226;BME280;55045;49.410;11.030;2023-08-20T08:26:15;98479.22;;;28.46;100.00
68226;BME280;55045;49.410;11.030;2023-08-20T08:29:18;98477.50;;;28.53;97.37
68226;BME280;55045;49.410;11.030;2023-08-20T08:32:21;98478.66;;;28.73;100.00
68226;BME280;55045;49.410;11.030;2023-08-20T08:35:24;98483.13;;;28.58;99.76
68226;BME280;55045;49.410;11.030;2023-08-20T08:38:28;98476.25;;;28.78;100.00
68226;BME280;55045;49.410;11.030;2023-08-20T08:41:35;98480.66;;;28.94;100.00
68226;BME280;55045;49.410;11.030;2023-08-20T08:44:41;98481.84;;;28.91;100.00
68226;BME280;55045;49.410;11.030;2023-08-20T08:47:45;98487.06;;;28.85;100.00
68226;BME280;55045;49.410;11.030;2023-08-20T08:50:49;98486.56;;;29.04;100.00
68226;BME280;55045;49.410;11.030;2023-08-20T08:53:54;98482.63;;;29.15;98.03
68226;BME280;55045;49.410;11.030;2023-08-20T08:56:59;98488.88;;;29.22;98.61
68226;BME280;55045;49.410;11.030;2023-08-20T09:00:03;98486.94;;;29.16;97.45
68226;BME280;55045;49.410;11.030;2023-08-20T09:03:07;98483.34;;;29.09;93.83
68226;BME280;55045;49.410;11.030;2023-08-20T09:06:12;98488.91;;;29.51;94.63
68226;BME280;55045;49.410;11.030;2023-08-20T09:09:16;98482.91;;;29.49;96.26
68226;BME280;55045;49.410;11.030;2023-08-20T09:12:21;98482.09;;;29.64;92.95
68226;BME280;55045;49.410;11.030;2023-08-20T09:15:32;98484.19;;;29.68;92.05
68226;BME280;55045;49.410;11.030;2023-08-20T09:18:38;98485.34;;;29.95;93.95
68226;BME280;55045;49.410;11.030;2023-08-20T09:21:45;98473.31;;;30.06;93.49
68226;BME280;55045;49.410;11.030;2023-08-20T09:24:55;98477.44;;;30.23;90.11
68226;BME280;55045;49.410;11.030;2023-08-20T09:28:02;98477.44;;;30.45;89.35
68226;BME280;55045;49.410;11.030;2023-08-20T09:34:38;98483.47;;;30.32;89.14
68226;BME280;55045;49.410;11.030;2023-08-20T09:37:43;98484.78;;;30.57;87.62
68226;BME280;55045;49.410;11.030;2023-08-20T09:40:53;98484.38;;;30.39;87.99
68226;BME280;55045;49.410;11.030;2023-08-20T09:44:02;98481.31;;;30.42;84.09
68226;BME280;55045;49.410;11.030;2023-08-20T09:47:08;98479.75;;;30.69;86.99
68226;BME280;55045;49.410;11.030;2023-08-20T09:50:13;98487.94;;;30.89;86.09
68226;BME280;55045;49.410;11.030;2023-08-20T09:53:26;98483.41;;;30.89;88.86
68226;BME280;55045;49.410;11.030;2023-08-20T09:56:30;98485.94;;;30.70;89.94
68226;BME280;55045;49.410;11.030;2023-08-20T09:59:34;98486.16;;;30.53;87.38
68226;BME280;55045;49.410;11.030;2023-08-20T10:02:38;98487.19;;;30.74;86.34
68226;BME280;55045;49.410;11.030;2023-08-20T10:05:44;98480.47;;;30.84;87.56
68226;BME280;55045;49.410;11.030;2023-08-20T10:08:47;98481.34;;;30.91;83.61
68226;BME280;55045;49.410;11.030;2023-08-20T10:11:51;98478.72;;;31.26;82.13
68226;BME280;55045;49.410;11.030;2023-08-20T10:14:55;98476.97;;;31.12;84.11
68226;BME280;55045;49.410;11.030;2023-08-20T10:18:00;98477.03;;;31.18;84.56
68226;BME280;55045;49.410;11.030;2023-08-20T10:21:05;98482.88;;;31.29;81.32
68226;BME280;55045;49.410;11.030;2023-08-20T10:24:10;98481.81;;;31.23;81.16
68226;BME280;55045;49.410;11.030;2023-08-20T10:27:13;98481.13;;;31.49;76.99
68226;BME280;55045;49.410;11.030;2023-08-20T10:30:18;98477.69;;;31.62;79.54
68226;BME280;55045;49.410;11.030;2023-08-20T10:33:23;98480.41;;;31.68;75.63
68226;BME280;55045;49.410;11.030;2023-08-20T10:36:28;98478.28;;;32.05;75.67
68226;BME280;55045;49.410;11.030;2023-08-20T10:39:31;98481.81;;;31.64;80.26
68226;BME280;55045;49.410;11.030;2023-08-20T10:42:41;98482.84;;;31.63;73.88
68226;BME280;55045;49.410;11.030;2023-08-20T10:45:45;98478.63;;;31.82;71.92
68226;BME280;55045;49.410;11.030;2023-08-20T10:48:50;98479.75;;;32.14;75.24
68226;BME280;55045;49.410;11.030;2023-08-20T10:51:55;98479.44;;;31.83;69.48
68226;BME280;55045;49.410;11.030;2023-08-20T10:55:03;98476.59;;;31.91;70.37
68226;BME280;55045;49.410;11.030;2023-08-20T10:58:06;98479.31;;;32.04;66.17
68226;BME280;55045;49.410;11.030;2023-08-20T11:01:18;98472.25;;;31.90;68.99
68226;BME280;55045;49.410;11.030;2023-08-20T11:04:24;98471.63;;;31.88;75.47
68226;BME280;55045;49.410;11.030;2023-08-20T11:07:30;98463.81;;;31.93;68.22
68226;BME280;55045;49.410;11.030;2023-08-20T11:10:37;98466.50;;;31.99;68.88
68226;BME280;55045;49.410;11.030;2023-08-20T11:13:40;98468.75;;;31.96;71.25
68226;BME280;55045;49.410;11.030;2023-08-20T11:16:45;98466.75;;;32.11;68.19
68226;BME280;55045;49.410;11.030;2023-08-20T11:19:49;98458.03;;;31.96;69.88
68226;BME280;55045;49.410;11.030;2023-08-20T11:23:10;98456.00;;;32.11;70.60
68226;BME280;55045;49.410;11.030;2023-08-20T11:26:14;98456.19;;;32.03;73.00
68226;BME280;55045;49.410;11.030;2023-08-20T11:29:17;98456.38;;;31.95;72.95
68226;BME280;55045;49.410;11.030;2023-08-20T11:32:23;98451.19;;;31.87;73.50
68226;BME280;55045;49.410;11.030;2023-08-20T11:35:26;98446.31;;;32.10;73.36
68226;BME280;55045;49.410;11.030;2023-08-20T11:38:31;98454.31;;;31.97;66.41
68226;BME280;55045;49.410;11.030;2023-08-20T11:41:36;98448.16;;;32.03;69.63
68226;BME280;55045;49.410;11.030;2023-08-20T11:44:43;98442.88;;;32.29;68.86
68226;BME280;55045;49.410;11.030;2023-08-20T11:47:46;98449.69;;;32.52;74.05
68226;BME280;55045;49.410;11.030;2023-08-20T11:50:50;98443.69;;;32.43;66.88
68226;BME280;55045;49.410;11.030;2023-08-20T11:53:55;98446.16;;;32.45;66.55
68226;BME280;55045;49.410;11.030;2023-08-20T11:57:02;98448.03;;;32.51;70.89
68226;BME280;55045;49.410;11.030;2023-08-20T12:00:06;98448.84;;;32.45;68.23
68226;BME280;55045;49.410;11.030;2023-08-20T12:03:18;98453.81;;;32.67;63.32
68226;BME280;55045;49.410;11.030;2023-08-20T12:06:22;98440.38;;;32.48;66.78
68226;BME280;55045;49.410;11.030;2023-08-20T12:09:27;98442.44;;;32.99;63.59
68226;BME280;55045;49.410;11.030;2023-08-20T12:12:31;98437.72;;;32.94;57.34
68226;BME280;55045;49.410;11.030;2023-08-20T12:15:36;98434.81;;;32.76;60.14
68226;BME280;55045;49.410;11.030;2023-08-20T12:18:40;98427.59;;;32.50;65.76
68226;BME280;55045;49.410;11.030;2023-08-20T12:21:43;98426.97;;;32.34;62.91
68226;BME280;55045;49.410;11.030;2023-08-20T12:24:47;98426.75;;;32.43;58.65
68226;BME280;55045;49.410;11.030;2023-08-20T12:27:54;98430.06;;;32.38;62.54
68226;BME280;55045;49.410;11.030;2023-08-20T12:30:58;98410.66;;;32.29;63.09
68226;BME280;55045;49.410;11.030;2023-08-20T12:34:02;98414.75;;;32.19;62.06
68226;BME280;55045;49.410;11.030;2023-08-20T12:37:07;98410.66;;;32.49;60.17
68226;BME280;55045;49.410;11.030;2023-08-20T12:40:12;98415.81;;;32.90;63.15
68226;BME280;55045;49.410;11.030;2023-08-20T12:43:15;98404.66;;;32.80;66.21
68226;BME280;55045;49.410;11.030;2023-08-20T12:46:18;98407.34;;;32.54;67.31
68226;BME280;55045;49.410;11.030;2023-08-20T12:49:22;98402.41;;;32.31;68.41
68226;BME280;55045;49.410;11.030;2023-08-20T12:52:25;98400.75;;;32.50;58.14
68226;BME280;55045;49.410;11.030;2023-08-20T12:55:30;98404.03;;;32.91;58.95
68226;BME280;55045;49.410;11.030;2023-08-20T12:58:33;98398.44;;;32.93;59.44
68226;BME280;55045;49.410;11.030;2023-08-20T13:01:36;98402.78;;;32.94;58.76
68226;BME280;55045;49.410;11.030;2023-08-20T13:04:40;98391.41;;;32.99;63.97
68226;BME280;55045;49.410;11.030;2023-08-20T13:07:46;98387.22;;;33.09;59.79
68226;BME280;55045;49.410;11.030;2023-08-20T13:10:53;98394.41;;;33.35;61.13
68226;BME280;55045;49.410;11.030;2023-08-20T13:13:58;98389.09;;;33.15;56.80
68226;BME280;55045;49.410;11.030;2023-08-20T13:17:03;98384.53;;;33.22;60.78
68226;BME280;55045;49.410;11.030;2023-08-20T13:20:07;98380.84;;;33.04;62.37
68226;BME280;55045;49.410;11.030;2023-08-20T13:23:10;98382.28;;;33.00;69.45
68226;BME280;55045;49.410;11.030;2023-08-20T13:26:15;98377.72;;;33.13;67.38
68226;BME280;55045;49.410;11.030;2023-08-20T13:29:19;98372.47;;;33.38;56.79
68226;BME280;55045;49.410;11.030;2023-08-20T13:32:23;98384.47;;;33.29;56.43
68226;BME280;55045;49.410;11.030;2023-08-20T13:35:26;98385.41;;;32.97;56.82
68226;BME280;55045;49.410;11.030;2023-08-20T13:38:30;98381.50;;;32.59;64.10
68226;BME280;55045;49.410;11.030;2023-08-20T13:41:35;98383.34;;;32.79;57.19
68226;BME280;55045;49.410;11.030;2023-08-20T13:44:38;98379.44;;;32.81;59.03
68226;BME280;55045;49.410;11.030;2023-08-20T13:47:42;98367.22;;;32.99;55.72
68226;BME280;55045;49.410;11.030;2023-08-20T13:50:49;98366.44;;;32.91;59.10
68226;BME280;55045;49.410;11.030;2023-08-20T13:53:52;98370.09;;;33.04;61.71
68226;BME280;55045;49.410;11.030;2023-08-20T13:56:57;98362.66;;;33.06;53.35
68226;BME280;55045;49.410;11.030;2023-08-20T14:00:00;98365.94;;;33.08;59.30
68226;BME280;55045;49.410;11.030;2023-08-20T14:03:09;98366.31;;;33.18;59.12
68226;BME280;55045;49.410;11.030;2023-08-20T14:06:12;98349.81;;;33.14;58.81
68226;BME280;55045;49.410;11.030;2023-08-20T14:09:16;98359.06;;;33.25;56.76
68226;BME280;55045;49.410;11.030;2023-08-20T14:12:21;98364.38;;;33.45;54.41
68226;BME280;55045;49.410;11.030;2023-08-20T14:15:25;98352.13;;;33.56;55.18
68226;BME280;55045;49.410;11.030;2023-08-20T14:18:28;98352.84;;;33.38;55.49
68226;BME280;55045;49.410;11.030;2023-08-20T14:21:32;98359.41;;;33.48;53.78
68226;BME280;55045;49.410;11.030;2023-08-20T14:24:35;98346.16;;;33.54;66.58
68226;BME280;55045;49.410;11.030;2023-08-20T14:27:40;98350.16;;;33.31;53.24
68226;BME280;55045;49.410;11.030;2023-08-20T14:30:43;98348.88;;;33.40;60.69
68226;BME280;55045;49.410;11.030;2023-08-20T14:33:46;98349.31;;;33.44;60.28
68226;BME280;55045;49.410;11.030;2023-08-20T14:36:50;98345.81;;;33.30;56.76
68226;BME280;55045;49.410;11.030;2023-08-20T14:39:53;98348.50;;;33.30;55.84
68226;BME280;55045;49.410;11.030;2023-08-20T14:42:57;98341.47;;;33.36;57.13
68226;BME280;55045;49.410;11.030;2023-08-20T14:46:01;98337.78;;;33.23;55.23
68226;BME280;55045;49.410;11.030;2023-08-20T14:49:04;98336.38;;;33.14;54.03
68226;BME280;55045;49.410;11.030;2023-08-20T14:52:07;98330.91;;;33.34;55.51
68226;BME280;55045;49.410;11.030;2023-08-20T14:55:18;98325.59;;;33.21;60.86
68226;BME280;55045;49.410;11.030;2023-08-20T14:58:23;98326.06;;;33.11;55.62
68226;BME280;55045;49.410;11.030;2023-08-20T15:01:26;98324.81;;;33.14;59.42
68226;BME280;55045;49.410;11.030;2023-08-20T15:04:30;98323.56;;;33.10;60.59
68226;BME280;55045;49.410;11.030;2023-08-20T15:07:33;98327.28;;;33.09;62.19
68226;BME280;55045;49.410;11.030;2023-08-20T15:10:38;98326.44;;;33.15;56.74
68226;BME280;55045;49.410;11.030;2023-08-20T15:13:43;98325.63;;;33.14;54.72
68226;BME280;55045;49.410;11.030;2023-08-20T15:16:46;98323.78;;;33.08;57.54
68226;BME280;55045;49.410;11.030;2023-08-20T15:19:50;98326.75;;;32.87;56.27
68226;BME280;55045;49.410;11.030;2023-08-20T15:22:53;98324.66;;;32.95;54.31
68226;BME280;55045;49.410;11.030;2023-08-20T15:25:56;98333.75;;;32.94;52.91
68226;BME280;55045;49.410;11.030;2023-08-20T15:29:01;98318.25;;;32.97;54.14
68226;BME280;55045;49.410;11.030;2023-08-20T15:34:35;98315.25;;;32.33;75.18
68226;BME280;55045;49.410;11.030;2023-08-20T15:37:38;98309.69;;;32.02;83.69
68226;BME280;55045;49.410;11.030;2023-08-20T15:40:41;98307.84;;;32.09;77.67
68226;BME280;55045;49.410;11.030;2023-08-20T15:43:45;98315.66;;;32.44;78.36
68226;BME280;55045;49.410;11.030;2023-08-20T15:46:48;98312.16;;;32.50;75.36
68226;BME280;55045;49.410;11.030;2023-08-20T15:49:53;98312.09;;;32.70;69.93
68226;BME280;55045;49.410;11.030;2023-08-20T15:52:56;98302.19;;;32.70;71.45
68226;BME280;55045;49.410;11.030;2023-08-20T15:55:59;98299.75;;;32.62;70.70
68226;BME280;55045;49.410;11.030;2023-08-20T15:59:03;98309.44;;;32.63;69.73
68226;BME280;55045;49.410;11.030;2023-08-20T16:02:06;98304.25;;;32.75;69.79
68226;BME280;55045;49.410;11.030;2023-08-20T16:05:15;98305.94;;;32.56;68.54
68226;BME280;55045;49.410;11.030;2023-08-20T16:08:19;98309.88;;;32.60;65.79